sensor_id;sensor_type;location;lat;lon;timestamp;P1;durP1;ratioP1;P2;durP2;ratioP2
35961;SDS011;22044;48.298;10.008;2022-08-30T00:02:27;16.80;;;14.97;;
35961;SDS011;22044;48.298;10.008;2022-08-30T00:04:54;15.37;;;13.67;;
35961;SDS011;22044;48.298;10.008;2022-08-30T00:07:25;16.20;;;14.50;;
35961;SDS011;22044;48.298;10.008;2022-08-30T00:09:53;18.30;;;14.70;;
35961;SDS011;22044;48.298;10.008;2022-08-30T00:12:20;16.20;;;14.57;;
35961;SDS011;22044;48.298;10.008;2022-08-30T00:14:47;18.70;;;14.87;;
35961;SDS011;22044;48.298;10.008;2022-08-30T00:17:14;15.63;;;14.13;;
35961;SDS011;22044;48.298;10.008;2022-08-30T00:19:44;18.80;;;14.23;;
35961;SDS011;22044;48.298;10.008;2022-08-30T00:22:12;17.40;;;13.67;;
35961;SDS011;22044;48.298;10.008;2022-08-30T00:24:39;16.33;;;14.73;;
35961;SDS011;22044;48.298;10.008;2022-08-30T00:27:06;18.90;;;14.67;;
35961;SDS011;22044;48.298;10.008;2022-08-30T00:29:33;17.73;;;14.43;;
35961;SDS011;22044;48.298;10.008;2022-08-30T00:32:00;21.50;;;15.13;;
35961;SDS011;22044;48.298;10.008;2022-08-30T00:34:27;17.10;;;15.30;;
35961;SDS011;22044;48.298;10.008;2022-08-30T00:36:57;18.33;;;14.43;;
35961;SDS011;22044;48.298;10.008;2022-08-30T00:39:24;14.53;;;13.03;;
35961;SDS011;22044;48.298;10.008;2022-08-30T00:41:53;14.90;;;13.03;;
35961;SDS011;22044;48.298;10.008;2022-08-30T00:44:20;16.37;;;13.80;;
35961;SDS011;22044;48.298;10.008;2022-08-30T00:46:48;13.07;;;11.77;;
35961;SDS011;22044;48.298;10.008;2022-08-30T00:49:15;17.13;;;12.60;;
35961;SDS011;22044;48.298;10.008;2022-08-30T00:51:42;16.07;;;12.43;;
35961;SDS011;22044;48.298;10.008;2022-08-30T00:54:11;20.33;;;12.20;;
35961;SDS011;22044;48.298;10.008;2022-08-30T00:56:39;14.23;;;12.60;;
35961;SDS011;22044;48.298;10.008;2022-08-30T00:59:06;13.60;;;12.20;;
35961;SDS011;22044;48.298;10.008;2022-08-30T01:01:34;13.80;;;12.47;;
35961;SDS011;22044;48.298;10.008;2022-08-30T01:04:02;16.53;;;11.90;;
35961;SDS011;22044;48.298;10.008;2022-08-30T01:06:31;14.83;;;13.23;;
35961;SDS011;22044;48.298;10.008;2022-08-30T01:08:59;14.17;;;12.37;;
35961;SDS011;22044;48.298;10.008;2022-08-30T01:11:30;14.83;;;13.33;;
35961;SDS011;22044;48.298;10.008;2022-08-30T01:13:59;14.33;;;12.50;;
35961;SDS011;22044;48.298;10.008;2022-08-30T01:16:27;13.63;;;12.33;;
35961;SDS011;22044;48.298;10.008;2022-08-30T01:18:58;13.73;;;12.43;;
35961;SDS011;22044;48.298;10.008;2022-08-30T01:21:28;15.00;;;13.40;;
35961;SDS011;22044;48.298;10.008;2022-08-30T01:24:01;14.50;;;13.10;;
35961;SDS011;22044;48.298;10.008;2022-08-30T01:26:29;16.37;;;14.07;;
35961;SDS011;22044;48.298;10.008;2022-08-30T01:28:59;14.93;;;13.40;;
35961;SDS011;22044;48.298;10.008;2022-08-30T01:31:29;14.13;;;12.70;;
35961;SDS011;22044;48.298;10.008;2022-08-30T01:33:57;13.03;;;11.73;;
35961;SDS011;22044;48.298;10.008;2022-08-30T01:36:24;15.20;;;13.30;;
35961;SDS011;22044;48.298;10.008;2022-08-30T01:38:51;14.50;;;12.57;;
35961;SDS011;22044;48.298;10.008;2022-08-30T01:41:23;13.50;;;11.77;;
35961;SDS011;22044;48.298;10.008;2022-08-30T01:43:52;11.53;;;10.33;;
35961;SDS011;22044;48.298;10.008;2022-08-30T01:46:21;14.97;;;10.70;;
35961;SDS011;22044;48.298;10.008;2022-08-30T01:48:51;17.97;;;13.33;;
35961;SDS011;22044;48.298;10.008;2022-08-30T01:51:21;15.07;;;13.20;;
35961;SDS011;22044;48.298;10.008;2022-08-30T01:53:49;13.27;;;11.43;;
35961;SDS011;22044;48.298;10.008;2022-08-30T01:56:16;13.77;;;12.43;;
35961;SDS011;22044;48.298;10.008;2022-08-30T01:58:46;19.17;;;13.57;;
35961;SDS011;22044;48.298;10.008;2022-08-30T02:01:14;13.23;;;11.83;;
35961;SDS011;22044;48.298;10.008;2022-08-30T02:03:43;13.03;;;11.33;;
35961;SDS011;22044;48.298;10.008;2022-08-30T02:06:12;13.43;;;12.07;;
35961;SDS011;22044;48.298;10.008;2022-08-30T02:08:41;12.50;;;11.20;;
35961;SDS011;22044;48.298;10.008;2022-08-30T02:11:09;15.40;;;13.73;;
35961;SDS011;22044;48.298;10.008;2022-08-30T02:13:38;15.93;;;14.23;;
35961;SDS011;22044;48.298;10.008;2022-08-30T02:16:08;18.77;;;15.10;;
35961;SDS011;22044;48.298;10.008;2022-08-30T02:18:37;17.43;;;15.57;;
35961;SDS011;22044;48.298;10.008;2022-08-30T02:21:05;17.43;;;15.70;;
35961;SDS011;22044;48.298;10.008;2022-08-30T02:23:33;17.73;;;15.67;;
35961;SDS011;22044;48.298;10.008;2022-08-30T02:26:00;17.70;;;15.67;;
35961;SDS011;22044;48.298;10.008;2022-08-30T02:28:28;18.70;;;15.90;;
35961;SDS011;22044;48.298;10.008;2022-08-30T02:30:55;19.67;;;15.90;;
35961;SDS011;22044;48.298;10.008;2022-08-30T02:33:24;17.00;;;15.20;;
35961;SDS011;22044;48.298;10.008;2022-08-30T02:35:51;17.40;;;14.60;;
35961;SDS011;22044;48.298;10.008;2022-08-30T02:38:18;16.63;;;14.63;;
35961;SDS011;22044;48.298;10.008;2022-08-30T02:40:45;15.73;;;14.00;;
35961;SDS011;22044;48.298;10.008;2022-08-30T02:43:13;15.63;;;14.03;;
35961;SDS011;22044;48.298;10.008;2022-08-30T02:45:40;15.63;;;13.97;;
35961;SDS011;22044;48.298;10.008;2022-08-30T02:48:08;15.00;;;13.47;;
35961;SDS011;22044;48.298;10.008;2022-08-30T02:50:40;17.23;;;13.63;;
35961;SDS011;22044;48.298;10.008;2022-08-30T02:53:07;14.63;;;13.13;;
35961;SDS011;22044;48.298;10.008;2022-08-30T02:55:34;19.03;;;13.57;;
35961;SDS011;22044;48.298;10.008;2022-08-30T02:58:02;15.70;;;12.20;;
35961;SDS011;22044;48.298;10.008;2022-08-30T03:00:29;14.67;;;12.37;;
35961;SDS011;22044;48.298;10.008;2022-08-30T03:02:56;15.13;;;12.23;;
35961;SDS011;22044;48.298;10.008;2022-08-30T03:05:24;14.57;;;12.73;;
35961;SDS011;22044;48.298;10.008;2022-08-30T03:07:52;15.67;;;12.77;;
35961;SDS011;22044;48.298;10.008;2022-08-30T03:10:20;14.33;;;12.17;;
35961;SDS011;22044;48.298;10.008;2022-08-30T03:12:47;14.50;;;13.00;;
35961;SDS011;22044;48.298;10.008;2022-08-30T03:15:14;16.60;;;12.60;;
35961;SDS011;22044;48.298;10.008;2022-08-30T03:17:42;16.53;;;13.10;;
35961;SDS011;22044;48.298;10.008;2022-08-30T03:20:09;16.80;;;13.10;;
35961;SDS011;22044;48.298;10.008;2022-08-30T03:22:37;13.77;;;12.17;;
35961;SDS011;22044;48.298;10.008;2022-08-30T03:25:06;15.77;;;12.80;;
35961;SDS011;22044;48.298;10.008;2022-08-30T03:27:34;15.73;;;13.07;;
35961;SDS011;22044;48.298;10.008;2022-08-30T03:30:01;15.07;;;13.47;;
35961;SDS011;22044;48.298;10.008;2022-08-30T03:32:29;18.07;;;12.97;;
35961;SDS011;22044;48.298;10.008;2022-08-30T03:34:56;15.47;;;13.70;;
35961;SDS011;22044;48.298;10.008;2022-08-30T03:37:23;15.20;;;13.70;;
35961;SDS011;22044;48.298;10.008;2022-08-30T03:39:52;16.63;;;14.47;;
35961;SDS011;22044;48.298;10.008;2022-08-30T03:42:20;16.47;;;13.47;;
35961;SDS011;22044;48.298;10.008;2022-08-30T03:44:47;14.03;;;12.63;;
35961;SDS011;22044;48.298;10.008;2022-08-30T03:47:14;16.33;;;13.90;;
35961;SDS011;22044;48.298;10.008;2022-08-30T03:49:41;19.40;;;14.57;;
35961;SDS011;22044;48.298;10.008;2022-08-30T03:52:09;17.83;;;13.33;;
35961;SDS011;22044;48.298;10.008;2022-08-30T03:54:36;15.53;;;13.40;;
35961;SDS011;22044;48.298;10.008;2022-08-30T03:57:04;14.70;;;13.23;;
35961;SDS011;22044;48.298;10.008;2022-08-30T03:59:33;16.23;;;13.37;;
35961;SDS011;22044;48.298;10.008;2022-08-30T04:02:00;16.70;;;13.20;;
35961;SDS011;22044;48.298;10.008;2022-08-30T04:04:27;13.97;;;12.47;;
35961;SDS011;22044;48.298;10.008;2022-08-30T04:06:55;14.33;;;12.83;;
35961;SDS011;22044;48.298;10.008;2022-08-30T04:09:22;14.77;;;13.20;;
35961;SDS011;22044;48.298;10.008;2022-08-30T04:11:49;17.90;;;13.50;;
35961;SDS011;22044;48.298;10.008;2022-08-30T04:14:16;14.10;;;12.67;;
35961;SDS011;22044;48.298;10.008;2022-08-30T04:16:45;14.87;;;13.27;;
35961;SDS011;22044;48.298;10.008;2022-08-30T04:19:12;13.27;;;11.27;;
35961;SDS011;22044;48.298;10.008;2022-08-30T04:21:39;14.20;;;12.40;;
35961;SDS011;22044;48.298;10.008;2022-08-30T04:24:06;14.53;;;13.00;;
35961;SDS011;22044;48.298;10.008;2022-08-30T04:26:33;14.50;;;13.00;;
35961;SDS011;22044;48.298;10.008;2022-08-30T04:29:00;17.30;;;13.10;;
35961;SDS011;22044;48.298;10.008;2022-08-30T04:31:28;14.37;;;12.13;;
35961;SDS011;22044;48.298;10.008;2022-08-30T04:33:57;14.47;;;12.37;;
35961;SDS011;22044;48.298;10.008;2022-08-30T04:36:24;13.47;;;12.13;;
35961;SDS011;22044;48.298;10.008;2022-08-30T04:38:51;14.40;;;11.33;;
35961;SDS011;22044;48.298;10.008;2022-08-30T04:41:18;13.13;;;11.67;;
35961;SDS011;22044;48.298;10.008;2022-08-30T04:43:48;13.93;;;12.27;;
35961;SDS011;22044;48.298;10.008;2022-08-30T04:46:16;13.63;;;12.20;;
35961;SDS011;22044;48.298;10.008;2022-08-30T04:48:44;14.03;;;11.97;;
35961;SDS011;22044;48.298;10.008;2022-08-30T04:51:13;15.20;;;13.43;;
35961;SDS011;22044;48.298;10.008;2022-08-30T04:53:42;15.83;;;13.20;;
35961;SDS011;22044;48.298;10.008;2022-08-30T04:56:10;17.20;;;12.70;;
35961;SDS011;22044;48.298;10.008;2022-08-30T04:58:40;14.17;;;12.67;;
35961;SDS011;22044;48.298;10.008;2022-08-30T05:01:10;15.30;;;13.70;;
35961;SDS011;22044;48.298;10.008;2022-08-30T05:03:38;19.90;;;15.30;;
35961;SDS011;22044;48.298;10.008;2022-08-30T05:06:06;16.93;;;15.07;;
35961;SDS011;22044;48.298;10.008;2022-08-30T05:08:35;16.23;;;13.00;;
35961;SDS011;22044;48.298;10.008;2022-08-30T05:11:02;12.23;;;10.43;;
35961;SDS011;22044;48.298;10.008;2022-08-30T05:13:31;13.73;;;12.33;;
35961;SDS011;22044;48.298;10.008;2022-08-30T05:15:59;17.50;;;14.20;;
35961;SDS011;22044;48.298;10.008;2022-08-30T05:18:27;16.03;;;14.27;;
35961;SDS011;22044;48.298;10.008;2022-08-30T05:21:01;19.30;;;14.63;;
35961;SDS011;22044;48.298;10.008;2022-08-30T05:23:29;18.10;;;14.87;;
35961;SDS011;22044;48.298;10.008;2022-08-30T05:25:58;15.67;;;13.60;;
35961;SDS011;22044;48.298;10.008;2022-08-30T05:28:29;19.77;;;14.33;;
35961;SDS011;22044;48.298;10.008;2022-08-30T05:30:56;18.77;;;14.43;;
35961;SDS011;22044;48.298;10.008;2022-08-30T05:33:23;16.30;;;14.50;;
35961;SDS011;22044;48.298;10.008;2022-08-30T05:35:51;16.90;;;15.10;;
35961;SDS011;22044;48.298;10.008;2022-08-30T05:38:18;16.70;;;14.67;;
35961;SDS011;22044;48.298;10.008;2022-08-30T05:40:45;16.20;;;14.60;;
35961;SDS011;22044;48.298;10.008;2022-08-30T05:43:13;16.97;;;14.47;;
35961;SDS011;22044;48.298;10.008;2022-08-30T05:45:40;15.10;;;13.50;;
35961;SDS011;22044;48.298;10.008;2022-08-30T05:48:07;17.70;;;14.23;;
35961;SDS011;22044;48.298;10.008;2022-08-30T05:50:35;15.70;;;11.37;;
35961;SDS011;22044;48.298;10.008;2022-08-30T05:53:02;11.40;;;10.23;;
35961;SDS011;22044;48.298;10.008;2022-08-30T05:55:29;12.60;;;11.27;;
35961;SDS011;22044;48.298;10.008;2022-08-30T05:57:56;13.60;;;12.17;;
35961;SDS011;22044;48.298;10.008;2022-08-30T06:00:26;16.13;;;12.23;;
35961;SDS011;22044;48.298;10.008;2022-08-30T06:02:54;15.33;;;12.30;;
35961;SDS011;22044;48.298;10.008;2022-08-30T06:05:21;14.87;;;11.47;;
35961;SDS011;22044;48.298;10.008;2022-08-30T06:07:48;17.77;;;15.40;;
35961;SDS011;22044;48.298;10.008;2022-08-30T06:10:16;16.63;;;14.90;;
35961;SDS011;22044;48.298;10.008;2022-08-30T06:12:43;18.33;;;14.23;;
35961;SDS011;22044;48.298;10.008;2022-08-30T06:15:10;17.07;;;14.87;;
35961;SDS011;22044;48.298;10.008;2022-08-30T06:17:38;20.10;;;15.80;;
35961;SDS011;22044;48.298;10.008;2022-08-30T06:20:06;18.43;;;15.40;;
35961;SDS011;22044;48.298;10.008;2022-08-30T06:22:34;18.70;;;15.23;;
35961;SDS011;22044;48.298;10.008;2022-08-30T06:25:04;16.53;;;14.83;;
35961;SDS011;22044;48.298;10.008;2022-08-30T06:27:32;15.80;;;13.97;;
35961;SDS011;22044;48.298;10.008;2022-08-30T06:30:00;15.63;;;13.80;;
35961;SDS011;22044;48.298;10.008;2022-08-30T06:32:27;15.27;;;13.20;;
35961;SDS011;22044;48.298;10.008;2022-08-30T06:34:55;16.20;;;14.50;;
35961;SDS011;22044;48.298;10.008;2022-08-30T06:37:22;18.53;;;13.63;;
35961;SDS011;22044;48.298;10.008;2022-08-30T06:39:49;15.73;;;13.77;;
35961;SDS011;22044;48.298;10.008;2022-08-30T06:42:17;15.30;;;13.50;;
35961;SDS011;22044;48.298;10.008;2022-08-30T06:44:44;16.07;;;14.37;;
35961;SDS011;22044;48.298;10.008;2022-08-30T06:47:11;15.27;;;13.70;;
35961;SDS011;22044;48.298;10.008;2022-08-30T06:49:38;16.27;;;14.40;;
35961;SDS011;22044;48.298;10.008;2022-08-30T06:52:07;16.40;;;14.70;;
35961;SDS011;22044;48.298;10.008;2022-08-30T06:54:34;17.00;;;14.97;;
35961;SDS011;22044;48.298;10.008;2022-08-30T06:57:01;18.10;;;15.50;;
35961;SDS011;22044;48.298;10.008;2022-08-30T06:59:28;22.53;;;15.47;;
35961;SDS011;22044;48.298;10.008;2022-08-30T07:01:56;18.17;;;14.63;;
35961;SDS011;22044;48.298;10.008;2022-08-30T07:04:23;14.10;;;12.60;;
35961;SDS011;22044;48.298;10.008;2022-08-30T07:06:51;15.90;;;14.27;;
35961;SDS011;22044;48.298;10.008;2022-08-30T07:09:19;16.17;;;13.30;;
35961;SDS011;22044;48.298;10.008;2022-08-30T07:11:47;18.00;;;15.40;;
35961;SDS011;22044;48.298;10.008;2022-08-30T07:14:14;16.67;;;14.97;;
35961;SDS011;22044;48.298;10.008;2022-08-30T07:16:41;17.83;;;15.77;;
35961;SDS011;22044;48.298;10.008;2022-08-30T07:19:09;18.93;;;16.13;;
35961;SDS011;22044;48.298;10.008;2022-08-30T07:21:36;14.57;;;13.00;;
35961;SDS011;22044;48.298;10.008;2022-08-30T07:24:05;17.13;;;15.07;;
35961;SDS011;22044;48.298;10.008;2022-08-30T07:26:36;17.80;;;13.03;;
35961;SDS011;22044;48.298;10.008;2022-08-30T07:29:05;18.23;;;14.20;;
35961;SDS011;22044;48.298;10.008;2022-08-30T07:31:33;16.30;;;14.70;;
35961;SDS011;22044;48.298;10.008;2022-08-30T07:34:02;17.07;;;15.37;;
35961;SDS011;22044;48.298;10.008;2022-08-30T07:36:29;15.30;;;13.77;;
35961;SDS011;22044;48.298;10.008;2022-08-30T07:38:57;18.50;;;15.50;;
35961;SDS011;22044;48.298;10.008;2022-08-30T07:41:26;17.77;;;14.30;;
35961;SDS011;22044;48.298;10.008;2022-08-30T07:43:56;13.97;;;12.53;;
35961;SDS011;22044;48.298;10.008;2022-08-30T07:46:24;15.10;;;13.50;;
35961;SDS011;22044;48.298;10.008;2022-08-30T07:48:52;20.10;;;15.60;;
35961;SDS011;22044;48.298;10.008;2022-08-30T07:51:21;18.20;;;16.33;;
35961;SDS011;22044;48.298;10.008;2022-08-30T07:53:52;17.73;;;15.60;;
35961;SDS011;22044;48.298;10.008;2022-08-30T07:56:20;15.90;;;14.27;;
35961;SDS011;22044;48.298;10.008;2022-08-30T07:58:47;16.45;;;14.75;;
35961;SDS011;22044;48.298;10.008;2022-08-30T08:01:16;18.02;;;15.38;;
35961;SDS011;22044;48.298;10.008;2022-08-30T08:03:44;15.43;;;13.68;;
35961;SDS011;22044;48.298;10.008;2022-08-30T08:06:15;18.63;;;14.65;;
35961;SDS011;22044;48.298;10.008;2022-08-30T08:08:44;19.38;;;14.88;;
35961;SDS011;22044;48.298;10.008;2022-08-30T08:11:12;15.95;;;13.90;;
35961;SDS011;22044;48.298;10.008;2022-08-30T08:13:40;16.00;;;14.18;;
35961;SDS011;22044;48.298;10.008;2022-08-30T08:16:07;15.82;;;14.23;;
35961;SDS011;22044;48.298;10.008;2022-08-30T08:18:36;13.90;;;12.15;;
35961;SDS011;22044;48.298;10.008;2022-08-30T08:21:03;16.92;;;14.57;;
35961;SDS011;22044;48.298;10.008;2022-08-30T08:23:31;15.68;;;14.07;;
35961;SDS011;22044;48.298;10.008;2022-08-30T08:25:58;13.77;;;12.38;;
35961;SDS011;22044;48.298;10.008;2022-08-30T08:28:26;15.13;;;13.55;;
35961;SDS011;22044;48.298;10.008;2022-08-30T08:30:53;14.98;;;13.45;;
35961;SDS011;22044;48.298;10.008;2022-08-30T08:33:21;14.40;;;12.27;;
35961;SDS011;22044;48.298;10.008;2022-08-30T08:35:50;15.10;;;13.40;;
35961;SDS011;22044;48.298;10.008;2022-08-30T08:38:17;19.58;;;13.90;;
35961;SDS011;22044;48.298;10.008;2022-08-30T08:40:46;14.88;;;12.95;;
35961;SDS011;22044;48.298;10.008;2022-08-30T08:43:25;14.02;;;12.30;;
35961;SDS011;22044;48.298;10.008;2022-08-30T08:45:53;15.05;;;13.57;;
35961;SDS011;22044;48.298;10.008;2022-08-30T08:48:27;15.25;;;13.65;;
35961;SDS011;22044;48.298;10.008;2022-08-30T08:50:58;18.92;;;12.50;;
35961;SDS011;22044;48.298;10.008;2022-08-30T08:53:46;17.55;;;14.35;;
35961;SDS011;22044;48.298;10.008;2022-08-30T08:56:19;14.75;;;12.52;;
35961;SDS011;22044;48.298;10.008;2022-08-30T08:58:48;14.07;;;12.68;;
35961;SDS011;22044;48.298;10.008;2022-08-30T09:01:19;13.20;;;11.98;;
35961;SDS011;22044;48.298;10.008;2022-08-30T09:03:48;12.43;;;11.15;;
35961;SDS011;22044;48.298;10.008;2022-08-30T09:09:07;15.05;;;12.90;;
35961;SDS011;22044;48.298;10.008;2022-08-30T09:11:35;13.10;;;11.80;;
35961;SDS011;22044;48.298;10.008;2022-08-30T09:14:03;13.65;;;12.25;;
35961;SDS011;22044;48.298;10.008;2022-08-30T09:16:48;14.02;;;12.52;;
35961;SDS011;22044;48.298;10.008;2022-08-30T09:19:26;12.85;;;11.55;;
35961;SDS011;22044;48.298;10.008;2022-08-30T09:22:00;14.57;;;12.82;;
35961;SDS011;22044;48.298;10.008;2022-08-30T09:24:36;13.82;;;12.52;;
35961;SDS011;22044;48.298;10.008;2022-08-30T09:27:12;14.25;;;12.73;;
35961;SDS011;22044;48.298;10.008;2022-08-30T09:29:52;11.38;;;10.27;;
35961;SDS011;22044;48.298;10.008;2022-08-30T09:32:26;12.77;;;11.45;;
35961;SDS011;22044;48.298;10.008;2022-08-30T09:34:56;11.38;;;10.27;;
35961;SDS011;22044;48.298;10.008;2022-08-30T09:37:32;10.98;;;9.95;;
35961;SDS011;22044;48.298;10.008;2022-08-30T09:40:07;13.55;;;10.50;;
35961;SDS011;22044;48.298;10.008;2022-08-30T09:42:37;12.57;;;10.57;;
35961;SDS011;22044;48.298;10.008;2022-08-30T09:45:04;11.45;;;10.43;;
35961;SDS011;22044;48.298;10.008;2022-08-30T09:47:44;12.20;;;9.07;;
35961;SDS011;22044;48.298;10.008;2022-08-30T09:50:13;10.57;;;9.48;;
35961;SDS011;22044;48.298;10.008;2022-08-30T09:52:46;8.60;;;7.65;;
35961;SDS011;22044;48.298;10.008;2022-08-30T09:55:22;9.27;;;8.25;;
35961;SDS011;22044;48.298;10.008;2022-08-30T09:58:02;12.45;;;7.78;;
35961;SDS011;22044;48.298;10.008;2022-08-30T10:00:37;9.73;;;7.00;;
35961;SDS011;22044;48.298;10.008;2022-08-30T10:03:22;7.50;;;6.82;;
35961;SDS011;22044;48.298;10.008;2022-08-30T10:05:56;7.78;;;6.20;;
35961;SDS011;22044;48.298;10.008;2022-08-30T10:08:34;6.70;;;6.03;;
35961;SDS011;22044;48.298;10.008;2022-08-30T10:11:11;7.22;;;6.28;;
35961;SDS011;22044;48.298;10.008;2022-08-30T10:13:58;7.35;;;6.55;;
35961;SDS011;22044;48.298;10.008;2022-08-30T10:16:56;7.10;;;6.40;;
35961;SDS011;22044;48.298;10.008;2022-08-30T10:19:30;6.80;;;6.20;;
35961;SDS011;22044;48.298;10.008;2022-08-30T10:22:10;6.05;;;5.55;;
35961;SDS011;22044;48.298;10.008;2022-08-30T10:24:44;6.55;;;5.78;;
35961;SDS011;22044;48.298;10.008;2022-08-30T10:27:17;6.47;;;5.85;;
35961;SDS011;22044;48.298;10.008;2022-08-30T10:29:48;7.57;;;5.82;;
35961;SDS011;22044;48.298;10.008;2022-08-30T10:32:19;5.88;;;5.38;;
35961;SDS011;22044;48.298;10.008;2022-08-30T10:34:54;6.65;;;5.80;;
35961;SDS011;22044;48.298;10.008;2022-08-30T10:37:27;6.47;;;5.88;;
35961;SDS011;22044;48.298;10.008;2022-08-30T10:40:00;6.43;;;5.80;;
35961;SDS011;22044;48.298;10.008;2022-08-30T10:42:52;6.10;;;5.60;;
35961;SDS011;22044;48.298;10.008;2022-08-30T10:45:21;7.30;;;5.68;;
35961;SDS011;22044;48.298;10.008;2022-08-30T10:47:52;6.40;;;5.50;;
35961;SDS011;22044;48.298;10.008;2022-08-30T10:50:26;6.05;;;5.43;;
35961;SDS011;22044;48.298;10.008;2022-08-30T10:52:56;6.28;;;5.15;;
35961;SDS011;22044;48.298;10.008;2022-08-30T10:55:32;5.70;;;4.95;;
35961;SDS011;22044;48.298;10.008;2022-08-30T10:58:10;6.35;;;4.93;;
35961;SDS011;22044;48.298;10.008;2022-08-30T11:00:40;6.07;;;5.57;;
35961;SDS011;22044;48.298;10.008;2022-08-30T11:03:23;5.72;;;5.22;;
35961;SDS011;22044;48.298;10.008;2022-08-30T11:06:15;6.05;;;4.82;;
35961;SDS011;22044;48.298;10.008;2022-08-30T11:08:55;6.22;;;5.03;;
35961;SDS011;22044;48.298;10.008;2022-08-30T11:11:55;5.63;;;5.13;;
35961;SDS011;22044;48.298;10.008;2022-08-30T11:14:37;7.03;;;5.97;;
35961;SDS011;22044;48.298;10.008;2022-08-30T11:17:05;5.70;;;5.20;;
35961;SDS011;22044;48.298;10.008;2022-08-30T11:19:55;5.63;;;5.13;;
35961;SDS011;22044;48.298;10.008;2022-08-30T11:22:26;6.07;;;5.47;;
35961;SDS011;22044;48.298;10.008;2022-08-30T11:24:59;5.95;;;5.30;;
35961;SDS011;22044;48.298;10.008;2022-08-30T11:27:41;6.38;;;5.78;;
35961;SDS011;22044;48.298;10.008;2022-08-30T11:33:29;6.20;;;4.80;;
35961;SDS011;22044;48.298;10.008;2022-08-30T11:36:08;12.02;;;5.43;;
35961;SDS011;22044;48.298;10.008;2022-08-30T11:38:58;5.70;;;5.00;;
35961;SDS011;22044;48.298;10.008;2022-08-30T11:41:29;6.50;;;4.90;;
35961;SDS011;22044;48.298;10.008;2022-08-30T11:44:13;6.10;;;4.75;;
35961;SDS011;22044;48.298;10.008;2022-08-30T11:46:53;5.45;;;4.90;;
35961;SDS011;22044;48.298;10.008;2022-08-30T11:49:30;5.07;;;4.57;;
35961;SDS011;22044;48.298;10.008;2022-08-30T11:52:15;5.30;;;4.80;;
35961;SDS011;22044;48.298;10.008;2022-08-30T11:54:55;7.40;;;5.07;;
35961;SDS011;22044;48.298;10.008;2022-08-30T11:57:37;6.45;;;5.07;;
35961;SDS011;22044;48.298;10.008;2022-08-30T12:00:24;6.05;;;4.70;;
35961;SDS011;22044;48.298;10.008;2022-08-30T12:02:55;5.35;;;4.57;;
35961;SDS011;22044;48.298;10.008;2022-08-30T12:14:32;4.90;;;4.50;;
35961;SDS011;22044;48.298;10.008;2022-08-30T12:20:38;4.97;;;4.57;;
35961;SDS011;22044;48.298;10.008;2022-08-30T12:23:17;7.07;;;4.70;;
35961;SDS011;22044;48.298;10.008;2022-08-30T12:25:46;4.78;;;4.38;;
35961;SDS011;22044;48.298;10.008;2022-08-30T12:28:15;5.65;;;5.05;;
35961;SDS011;22044;48.298;10.008;2022-08-30T12:30:48;6.63;;;4.65;;
35961;SDS011;22044;48.298;10.008;2022-08-30T12:33:23;5.30;;;4.80;;
35961;SDS011;22044;48.298;10.008;2022-08-30T12:35:56;5.47;;;5.00;;
35961;SDS011;22044;48.298;10.008;2022-08-30T12:38:26;5.28;;;4.88;;
35961;SDS011;22044;48.298;10.008;2022-08-30T12:40:56;5.60;;;5.10;;
35961;SDS011;22044;48.298;10.008;2022-08-30T12:43:29;6.25;;;4.47;;
35961;SDS011;22044;48.298;10.008;2022-08-30T12:46:03;5.22;;;4.72;;
35961;SDS011;22044;48.298;10.008;2022-08-30T12:48:36;6.47;;;4.47;;
35961;SDS011;22044;48.298;10.008;2022-08-30T12:51:04;5.45;;;4.50;;
35961;SDS011;22044;48.298;10.008;2022-08-30T12:53:35;6.03;;;4.47;;
35961;SDS011;22044;48.298;10.008;2022-08-30T12:56:07;4.75;;;4.35;;
35961;SDS011;22044;48.298;10.008;2022-08-30T12:58:37;4.65;;;4.25;;
35961;SDS011;22044;48.298;10.008;2022-08-30T13:01:15;5.57;;;4.20;;
35961;SDS011;22044;48.298;10.008;2022-08-30T13:04:00;4.28;;;3.88;;
35961;SDS011;22044;48.298;10.008;2022-08-30T13:06:36;4.68;;;4.28;;
35961;SDS011;22044;48.298;10.008;2022-08-30T13:09:23;4.50;;;4.10;;
35961;SDS011;22044;48.298;10.008;2022-08-30T13:11:53;5.07;;;4.57;;
35961;SDS011;22044;48.298;10.008;2022-08-30T13:14:33;5.28;;;4.47;;
35961;SDS011;22044;48.298;10.008;2022-08-30T13:17:06;5.35;;;4.85;;
35961;SDS011;22044;48.298;10.008;2022-08-30T13:19:37;4.70;;;4.40;;
35961;SDS011;22044;48.298;10.008;2022-08-30T13:24:50;6.85;;;5.00;;
35961;SDS011;22044;48.298;10.008;2022-08-30T13:27:17;6.65;;;4.75;;
35961;SDS011;22044;48.298;10.008;2022-08-30T13:29:45;5.03;;;4.40;;
35961;SDS011;22044;48.298;10.008;2022-08-30T13:32:12;5.47;;;4.50;;
35961;SDS011;22044;48.298;10.008;2022-08-30T13:34:41;5.35;;;4.80;;
35961;SDS011;22044;48.298;10.008;2022-08-30T13:37:09;5.07;;;4.57;;
35961;SDS011;22044;48.298;10.008;2022-08-30T13:39:40;5.28;;;3.95;;
35961;SDS011;22044;48.298;10.008;2022-08-30T13:42:07;6.50;;;4.82;;
35961;SDS011;22044;48.298;10.008;2022-08-30T13:44:35;4.90;;;4.50;;
35961;SDS011;22044;48.298;10.008;2022-08-30T13:47:02;5.07;;;4.68;;
35961;SDS011;22044;48.298;10.008;2022-08-30T13:49:31;4.90;;;4.50;;
35961;SDS011;22044;48.298;10.008;2022-08-30T13:52:02;4.72;;;4.28;;
35961;SDS011;22044;48.298;10.008;2022-08-30T13:54:31;5.03;;;4.63;;
35961;SDS011;22044;48.298;10.008;2022-08-30T13:56:58;7.22;;;4.88;;
35961;SDS011;22044;48.298;10.008;2022-08-30T13:59:25;5.30;;;4.70;;
35961;SDS011;22044;48.298;10.008;2022-08-30T14:01:54;5.57;;;5.10;;
35961;SDS011;22044;48.298;10.008;2022-08-30T14:04:22;6.13;;;5.05;;
35961;SDS011;22044;48.298;10.008;2022-08-30T14:06:49;4.88;;;4.47;;
35961;SDS011;22044;48.298;10.008;2022-08-30T14:09:17;4.88;;;4.43;;
35961;SDS011;22044;48.298;10.008;2022-08-30T14:11:44;8.00;;;4.60;;
35961;SDS011;22044;48.298;10.008;2022-08-30T14:14:11;5.63;;;4.95;;
35961;SDS011;22044;48.298;10.008;2022-08-30T14:16:41;5.90;;;4.38;;
35961;SDS011;22044;48.298;10.008;2022-08-30T14:19:10;4.90;;;4.40;;
35961;SDS011;22044;48.298;10.008;2022-08-30T14:21:39;5.30;;;4.40;;
35961;SDS011;22044;48.298;10.008;2022-08-30T14:24:07;4.60;;;4.25;;
35961;SDS011;22044;48.298;10.008;2022-08-30T14:26:36;5.20;;;4.70;;
35961;SDS011;22044;48.298;10.008;2022-08-30T14:29:08;7.30;;;5.15;;
35961;SDS011;22044;48.298;10.008;2022-08-30T14:31:36;5.25;;;4.80;;
35961;SDS011;22044;48.298;10.008;2022-08-30T14:34:04;5.60;;;4.40;;
35961;SDS011;22044;48.298;10.008;2022-08-30T14:36:33;6.85;;;5.25;;
35961;SDS011;22044;48.298;10.008;2022-08-30T14:39:01;5.10;;;4.60;;
35961;SDS011;22044;48.298;10.008;2022-08-30T14:41:30;5.43;;;4.93;;
35961;SDS011;22044;48.298;10.008;2022-08-30T14:43:59;5.35;;;4.85;;
35961;SDS011;22044;48.298;10.008;2022-08-30T14:46:26;5.88;;;4.90;;
35961;SDS011;22044;48.298;10.008;2022-08-30T14:48:53;5.80;;;4.40;;
35961;SDS011;22044;48.298;10.008;2022-08-30T14:51:21;5.30;;;4.55;;
35961;SDS011;22044;48.298;10.008;2022-08-30T14:53:49;8.43;;;4.68;;
35961;SDS011;22044;48.298;10.008;2022-08-30T14:56:19;4.63;;;4.22;;